Station: Cleve Airport

  Atmospheric Gas Attenuation - ITU Rec 676-11   --------------- db/100km ---------------
Date Time Temp RH % AH g/m3 Dew Point Wind Direction Speed kph Gust kph Barometer mB Rainfall Since 9am 24GHz 47GHz 76GHz 122GHz 134GHz 241GHz
03 07:50 15.3 68 8.88 9.4 32 35 1020.9 0 20.1 26.2 40.5 106.2 100.8 347.0
03 07:40 15.3 68 8.88 9.4 30 33 1020.8 0 20.1 26.2 40.5 106.2 100.8 347.0
03 07:30 15 69 8.85 9.4 26 39 1020.6 0 20.1 26.2 40.5 106.3 100.8 346.9
03 07:20 14.8 69 8.74 9.2 26 32 1020.5 0 19.8 26.1 40.2 105.4 99.6 342.6
03 07:10 14.8 71 8.99 9.6 26 32 1020.4 0 20.4 26.5 41.2 108.0 102.9 354.2
03 07:00 14.7 71 8.94 9.5 26 35 1020.1 0 20.3 26.4 41.0 107.6 102.3 352.2
03 06:50 14.5 73 9.08 9.7 28 32 1020 0 20.6 26.7 41.7 109.4 104.4 359.6
03 06:40 14.3 73 8.97 9.5 26 33 1019.8 0 20.3 26.6 41.3 108.5 103.2 355.3
03 06:30 14.2 73 8.91 9.4 26 35 1019.5 0 20.2 26.5 41.1 107.9 102.5 352.9
03 06:20 14.1 74 8.98 9.5 22 33 1019.8 0 20.4 26.7 41.5 108.8 103.6 356.7
03 06:10 14 74 8.93 9.4 26 30 1019.5 0 20.3 26.6 41.3 108.4 103.0 354.7
03 06:00 13.9 74 8.87 9.3 26 32 1019.3 0 20.2 26.5 41.1 107.9 102.4 352.3
03 05:50 13.8 74 8.82 9.3 24 28 1019.3 0 20.1 26.5 41.0 107.5 101.8 350.4
03 05:40 13.6 76 8.94 9.5 22 26 1019 0 20.3 26.7 41.5 109.0 103.7 356.9
03 05:30 13.5 77 9.01 9.6 22 30 1019.1 0 20.5 26.9 41.9 109.9 104.8 360.7
03 05:20 13.2 80 9.19 9.8 22 26 1019.2 0 20.9 27.3 42.8 112.3 107.6 370.6
03 05:00 11.7 85 8.89 9.3 15 19 1019.1 0 20.3 27.2 42.3 111.1 105.6 363.3
03 04:50 11.4 85 8.73 9 17 19 1018.8 0 20.0 27.0 41.8 109.7 103.8 356.9
03 04:40 11.4 85 8.73 9 17 19 1018.7 0 20.0 27.0 41.8 109.7 103.7 356.8
03 04:30 11.4 85 8.73 9 17 20 1018.7 0 20.0 27.0 41.8 109.7 103.7 356.8
03 04:20 11.5 85 8.78 9.1 17 19 1018.8 0 20.1 27.1 42.0 110.2 104.3 358.8
03 04:10 11.7 85 8.89 9.3 15 17 1019.2 0 20.3 27.2 42.4 111.2 105.6 363.3
03 04:00 11.8 85 8.95 9.4 17 20 1019 0 20.4 27.3 42.5 111.7 106.3 365.7
03 03:50 11.9 84 8.9 9.3 17 19 1019.2 0 20.3 27.2 42.3 111.0 105.5 362.9
03 03:40 12.1 84 9.01 9.5 17 20 1019 0 20.5 27.3 42.6 111.9 106.7 367.2
03 03:30 12.2 84 9.07 9.6 17 20 1019 0 20.7 27.4 42.8 112.4 107.4 369.6
03 03:20 12.3 85 9.23 9.9 17 17 1019.2 0 21.0 27.6 43.5 114.1 109.5 376.9
03 03:10 12.5 84 9.24 9.9 17 19 1018.9 0 21.0 27.6 43.4 113.9 109.3 376.3
03 03:00 12.9 82 9.24 9.9 19 24 1018.9 0 21.0 27.4 43.2 113.3 108.7 374.4
03 02:50 13.2 81 9.3 10 19 26 1019 0 21.1 27.4 43.2 113.5 109.1 375.9
03 02:40 13.2 81 9.3 10 19 22 1019.2 0 21.1 27.5 43.3 113.6 109.1 375.9
03 02:30 13.1 82 9.36 10.1 17 22 1019.2 0 21.2 27.6 43.6 114.4 110.1 379.3
03 02:20 13.3 81 9.36 10.1 19 20 1019.4 0 21.2 27.5 43.5 114.1 109.8 378.4
03 02:10 13.3 81 9.36 10.1 20 20 1019.3 0 21.2 27.5 43.5 114.1 109.8 378.3
03 02:00 13.3 81 9.36 10.1 17 22 1019.3 0 21.2 27.5 43.5 114.1 109.8 378.3
03 01:50 13.5 81 9.47 10.3 19 22 1019.5 0 21.5 27.7 43.8 115.1 111.1 382.7
03 01:40 13.5 80 9.36 10.1 20 22 1019.5 0 21.2 27.5 43.3 113.8 109.6 377.4
03 01:30 13.7 80 9.47 10.3 17 20 1019.8 0 21.4 27.6 43.7 114.8 110.8 381.8
03 01:20 13.8 79 9.41 10.2 19 20 1019.7 0 21.3 27.5 43.4 114.0 109.8 378.4
03 01:10 13.8 80 9.53 10.4 17 19 1019.8 0 21.6 27.7 43.9 115.3 111.5 384.2
03 01:00 13.8 80 9.53 10.4 19 24 1019.8 0 21.6 27.7 43.9 115.3 111.5 384.2
03 00:50 13.8 80 9.53 10.4 17 20 1020.1 0 21.6 27.7 43.9 115.4 111.5 384.3
03 00:40 13.8 79 9.41 10.2 19 22 1020.2 0 21.3 27.5 43.4 114.0 109.9 378.6
03 00:30 13.8 79 9.41 10.2 19 26 1020.1 0 21.3 27.5 43.4 114.0 109.9 378.5
03 00:20 13.7 79 9.36 10.1 17 20 1020.2 0 21.2 27.4 43.3 113.6 109.3 376.7
03 00:10 13.6 79 9.3 10 17 19 1020.5 0 21.1 27.4 43.1 113.1 108.7 374.4
03 00:00 13.7 78 9.24 9.9 17 19 1020.5 0 21.0 27.3 42.8 112.3 107.7 371.0
02 23:50 13.7 78 9.24 9.9 17 19 1020.7 0 21.0 27.3 42.8 112.3 107.7 371.1
02 23:40 13.8 77 9.17 9.8 19 20 1020.6 0 20.8 27.1 42.5 111.4 106.6 367.3
02 23:30 13.9 76 9.11 9.7 19 24 1020.5 0 20.7 27.0 42.1 110.6 105.7 363.9
02 23:20 14 76 9.17 9.8 20 24 1020.5 0 20.8 27.0 42.3 111.1 106.4 366.3
02 23:10 13.9 76 9.11 9.7 20 24 1020.6 0 20.7 27.0 42.2 110.6 105.7 364.0
02 23:00 13.8 76 9.06 9.6 17 22 1020.4 0 20.6 26.9 42.0 110.2 105.1 362.0
02 22:50 13.8 76 9.06 9.6 17 20 1020.8 0 20.6 26.9 42.0 110.2 105.2 362.1
02 22:40 13.7 76 9 9.6 19 22 1020.6 0 20.4 26.9 41.8 109.7 104.5 359.7
02 22:30 13.6 75 8.83 9.3 19 22 1020.5 0 20.1 26.6 41.2 108.0 102.3 352.1
02 22:20 13.7 74 8.76 9.2 19 22 1020.6 0 19.9 26.5 40.8 107.1 101.3 348.4
02 22:10 13.9 74 8.87 9.3 22 28 1020.6 0 20.2 26.6 41.2 108.0 102.5 352.7
02 22:00 13.8 73 8.7 9 20 28 1020.4 0 19.8 26.3 40.5 106.3 100.3 345.1
02 21:50 13.8 73 8.7 9 20 22 1020.4 0 19.8 26.3 40.5 106.3 100.3 345.1
02 21:40 13.8 71 8.46 8.6 20 22 1020.3 0 19.3 25.9 39.5 103.7 97.1 333.9
02 21:30 14 71 8.56 8.8 22 30 1020.2 0 19.5 26.0 39.8 104.5 98.2 337.7
02 21:20 14 71 8.56 8.8 20 24 1020.2 0 19.5 26.0 39.8 104.5 98.2 337.7
02 21:10 14.1 70 8.5 8.7 28 32 1020.1 0 19.4 25.9 39.6 103.7 97.3 334.5
02 21:00 14.2 70 8.55 8.8 24 32 1019.9 0 19.5 25.9 39.7 104.1 97.8 336.3
02 20:50 14.2 69 8.43 8.6 24 30 1020 0 19.2 25.8 39.2 102.8 96.2 330.8
02 20:40 14.4 69 8.53 8.8 24 32 1020 0 19.4 25.9 39.5 103.6 97.3 334.5
02 20:30 14.4 67 8.28 8.4 30 37 1019.6 0 18.9 25.4 38.5 100.9 94.0 323.0
02 20:20 14.5 68 8.46 8.7 26 33 1019.8 0 19.2 25.7 39.2 102.7 96.2 330.9
02 20:10 14.8 66 8.36 8.5 24 32 1019.7 0 19.0 25.5 38.6 101.3 94.5 325.0
02 20:00 15 65 8.33 8.5 32 41 1019.4 0 19.0 25.3 38.4 100.7 93.9 322.8
02 19:50 15.3 64 8.36 8.5 30 35 1019.3 0 19.0 25.3 38.4 100.6 93.9 322.9
02 19:40 15.4 65 8.54 8.9 30 37 1019.4 0 19.4 25.6 39.0 102.4 96.1 330.6
02 19:30 15.5 64 8.46 8.7 28 37 1019.1 0 19.2 25.4 38.7 101.4 94.9 326.5
02 19:20 15.6 62 8.25 8.4 30 35 1018.9 0 18.8 25.0 37.8 99.0 92.1 316.6
02 19:10 16.2 61 8.41 8.7 35 41 1018.8 0 19.1 25.1 38.1 99.9 93.4 321.3
02 19:00 16.2 60 8.27 8.4 28 35 1018.8 0 18.8 24.9 37.6 98.5 91.6 315.1
02 18:50 15.8 63 8.48 8.8 32 37 1018.7 0 19.2 25.3 38.6 101.1 94.8 326.1
02 18:40 16.1 61 8.36 8.6 30 35 1018.6 0 19.0 25.1 38.0 99.5 92.9 319.5
02 18:30 16.5 60 8.42 8.7 30 41 1018.7 0 19.1 25.0 38.0 99.6 93.2 320.5
02 18:20 17.1 58 8.44 8.8 33 39 1018.8 0 19.1 24.9 37.8 99.1 92.7 319.0
02 18:10 17.1 60 8.73 9.3 33 39 1018.6 0 19.7 25.4 38.9 102.1 96.4 331.9
02 18:00 16.8 60 8.58 9 30 37 1018.6 0 19.4 25.2 38.5 100.9 94.9 326.4
02 17:50 17.2 60 8.79 9.4 28 32 1018.6 0 19.8 25.4 39.1 102.6 97.0 334.1
02 17:40 16.7 62 8.81 9.4 26 32 1018.5 0 19.9 25.6 39.4 103.4 97.9 337.1
02 17:30 17.5 59 8.8 9.4 32 39 1018.4 0 19.8 25.3 39.0 102.3 96.8 333.2
02 17:20 18.6 58 9.23 10.2 32 35 1018.1 0 20.7 25.7 40.1 105.2 100.8 347.6
02 17:10 18.2 57 8.86 9.5 32 39 1018 0 19.9 25.2 38.9 101.9 96.6 332.9
02 17:00 18 58 8.91 9.6 28 41 1018.1 0 20.0 25.4 39.2 102.7 97.5 335.9
02 16:50 18.2 58 9.01 9.8 28 30 1018 0 20.2 25.5 39.4 103.5 98.5 339.5
02 16:40 18 60 9.21 10.1 20 24 1018.2 0 20.7 25.8 40.3 105.8 101.4 349.3
02 16:30 18.7 59 9.45 10.5 30 39 1017.9 0 21.1 26.0 40.9 107.3 103.5 356.9
02 16:20 17.9 60 9.16 10 30 35 1017.8 0 20.6 25.8 40.2 105.4 100.8 347.4
02 16:10 18.4 57 8.96 9.7 26 32 1017.7 0 20.1 25.3 39.1 102.7 97.6 336.4
02 16:00 18.2 57 8.86 9.5 28 37 1017.7 0 19.9 25.2 38.8 101.9 96.6 332.8
02 15:50 18.4 59 9.28 10.3 28 33 1017.8 0 20.8 25.8 40.4 106.0 101.7 350.6
02 15:40 19.2 57 9.4 10.5 24 32 1017.7 0 21.0 25.8 40.4 106.1 102.2 352.3
02 15:30 18.6 59 9.39 10.4 26 35 1017.7 0 21.0 25.9 40.7 106.8 102.8 354.6
02 15:20 18.8 55 8.86 9.6 32 37 1017.5 0 19.9 25.0 38.5 101.1 95.9 330.2
02 15:10 19.4 55 9.18 10.1 24 28 1017.3 0 20.5 25.4 39.5 103.6 99.1 341.7

Last Refresh: 03-Dec-2021 07:59:36

Bureau of Meteorology